Terminal Aerodrome Forecast
Issued by NWS

Home | Current Version | Previous Version | Text Only | Print | Product List | Glossary On
Versions: 1 2 3 4 5 6 7 8 9 10 11 12
000
FTUS42 KGSP 010539
TAFGMU
TAF
KGMU 010539Z 0106/0206 24003KT P6SM BKN150
     FM011600 21010KT P6SM BKN200
     FM012300 17008KT P6SM OVC025
     FM020100 17012KT 4SM -RA OVC008=

USA.gov is the U.S. government's official web portal to all federal, state and local government web resources and services.